sensor_id;sensor_type;location;lat;lon;timestamp;temperature;humidity
32865;DHT22;19219;44.500;11.188;2023-05-14T00:01:38;15.30;99.90
32865;DHT22;19219;44.500;11.188;2023-05-14T00:04:05;15.30;99.90
32865;DHT22;19219;44.500;11.188;2023-05-14T00:06:30;15.30;99.90
32865;DHT22;19219;44.500;11.188;2023-05-14T00:08:56;15.30;99.90
32865;DHT22;19219;44.500;11.188;2023-05-14T00:11:22;15.30;99.90
32865;DHT22;19219;44.500;11.188;2023-05-14T00:13:49;15.20;99.90
32865;DHT22;19219;44.500;11.188;2023-05-14T00:16:15;15.20;99.90
32865;DHT22;19219;44.500;11.188;2023-05-14T00:18:40;15.20;99.90
32865;DHT22;19219;44.500;11.188;2023-05-14T00:21:06;15.20;99.90
32865;DHT22;19219;44.500;11.188;2023-05-14T00:23:32;15.10;99.90
32865;DHT22;19219;44.500;11.188;2023-05-14T00:25:58;15.10;99.90
32865;DHT22;19219;44.500;11.188;2023-05-14T00:28:23;15.10;99.90
32865;DHT22;19219;44.500;11.188;2023-05-14T00:30:50;15.10;99.90
32865;DHT22;19219;44.500;11.188;2023-05-14T00:33:16;15.10;99.90
32865;DHT22;19219;44.500;11.188;2023-05-14T00:35:42;15.10;99.90
32865;DHT22;19219;44.500;11.188;2023-05-14T00:38:07;15.20;99.90
32865;DHT22;19219;44.500;11.188;2023-05-14T00:40:33;15.20;99.90
32865;DHT22;19219;44.500;11.188;2023-05-14T00:42:59;15.20;99.90
32865;DHT22;19219;44.500;11.188;2023-05-14T00:45:25;15.20;99.90
32865;DHT22;19219;44.500;11.188;2023-05-14T00:47:51;15.20;99.90
32865;DHT22;19219;44.500;11.188;2023-05-14T00:50:18;15.30;99.90
32865;DHT22;19219;44.500;11.188;2023-05-14T00:52:44;15.30;99.90
32865;DHT22;19219;44.500;11.188;2023-05-14T00:55:11;15.30;99.90
32865;DHT22;19219;44.500;11.188;2023-05-14T00:57:40;15.20;99.90
32865;DHT22;19219;44.500;11.188;2023-05-14T01:00:07;15.10;99.90
32865;DHT22;19219;44.500;11.188;2023-05-14T01:02:33;15.10;99.90
32865;DHT22;19219;44.500;11.188;2023-05-14T01:04:59;15.10;99.90
32865;DHT22;19219;44.500;11.188;2023-05-14T01:10:01;15.10;99.90
32865;DHT22;19219;44.500;11.188;2023-05-14T01:12:37;15.00;99.90
32865;DHT22;19219;44.500;11.188;2023-05-14T01:15:28;14.90;99.90
32865;DHT22;19219;44.500;11.188;2023-05-14T01:18:07;14.90;99.90
32865;DHT22;19219;44.500;11.188;2023-05-14T01:20:34;14.90;99.90
32865;DHT22;19219;44.500;11.188;2023-05-14T01:23:00;14.90;99.90
32865;DHT22;19219;44.500;11.188;2023-05-14T01:25:26;14.90;99.90
32865;DHT22;19219;44.500;11.188;2023-05-14T01:28:08;14.90;99.90
32865;DHT22;19219;44.500;11.188;2023-05-14T01:30:53;14.90;99.90
32865;DHT22;19219;44.500;11.188;2023-05-14T01:33:24;14.80;99.90
32865;DHT22;19219;44.500;11.188;2023-05-14T01:35:52;14.80;99.90
32865;DHT22;19219;44.500;11.188;2023-05-14T01:38:19;14.80;99.90
32865;DHT22;19219;44.500;11.188;2023-05-14T01:40:46;14.90;99.90
32865;DHT22;19219;44.500;11.188;2023-05-14T01:43:14;14.80;99.90
32865;DHT22;19219;44.500;11.188;2023-05-14T01:45:41;14.70;99.90
32865;DHT22;19219;44.500;11.188;2023-05-14T01:48:06;14.70;99.90
32865;DHT22;19219;44.500;11.188;2023-05-14T01:50:32;14.70;99.90
32865;DHT22;19219;44.500;11.188;2023-05-14T01:52:58;14.70;99.90
32865;DHT22;19219;44.500;11.188;2023-05-14T01:55:24;14.80;99.90
32865;DHT22;19219;44.500;11.188;2023-05-14T01:57:51;14.70;99.90
32865;DHT22;19219;44.500;11.188;2023-05-14T02:00:17;14.60;99.90
32865;DHT22;19219;44.500;11.188;2023-05-14T02:02:43;14.60;99.90
32865;DHT22;19219;44.500;11.188;2023-05-14T02:05:10;14.50;99.90
32865;DHT22;19219;44.500;11.188;2023-05-14T02:07:36;14.50;99.90
32865;DHT22;19219;44.500;11.188;2023-05-14T02:10:01;14.50;99.90
32865;DHT22;19219;44.500;11.188;2023-05-14T02:12:27;14.50;99.90
32865;DHT22;19219;44.500;11.188;2023-05-14T02:14:53;14.50;99.90
32865;DHT22;19219;44.500;11.188;2023-05-14T02:17:19;14.50;99.90
32865;DHT22;19219;44.500;11.188;2023-05-14T02:19:44;14.50;99.90
32865;DHT22;19219;44.500;11.188;2023-05-14T02:22:11;14.50;99.90
32865;DHT22;19219;44.500;11.188;2023-05-14T02:24:37;14.40;99.90
32865;DHT22;19219;44.500;11.188;2023-05-14T02:27:02;14.40;99.90
32865;DHT22;19219;44.500;11.188;2023-05-14T02:29:28;14.40;99.90
32865;DHT22;19219;44.500;11.188;2023-05-14T02:31:55;14.40;99.90
32865;DHT22;19219;44.500;11.188;2023-05-14T02:34:21;14.30;99.90
32865;DHT22;19219;44.500;11.188;2023-05-14T02:36:47;14.30;99.90
32865;DHT22;19219;44.500;11.188;2023-05-14T02:39:13;14.30;99.90
32865;DHT22;19219;44.500;11.188;2023-05-14T02:41:38;14.30;99.90
32865;DHT22;19219;44.500;11.188;2023-05-14T02:44:04;14.30;99.90
32865;DHT22;19219;44.500;11.188;2023-05-14T02:46:30;14.30;99.90
32865;DHT22;19219;44.500;11.188;2023-05-14T02:48:56;14.30;99.90
32865;DHT22;19219;44.500;11.188;2023-05-14T02:51:22;14.30;99.90
32865;DHT22;19219;44.500;11.188;2023-05-14T02:53:47;14.20;99.90
32865;DHT22;19219;44.500;11.188;2023-05-14T02:56:13;14.30;99.90
32865;DHT22;19219;44.500;11.188;2023-05-14T02:58:39;14.30;99.90
32865;DHT22;19219;44.500;11.188;2023-05-14T03:01:04;14.30;99.90
32865;DHT22;19219;44.500;11.188;2023-05-14T03:03:30;14.30;99.90
32865;DHT22;19219;44.500;11.188;2023-05-14T03:05:57;14.30;99.90
32865;DHT22;19219;44.500;11.188;2023-05-14T03:08:23;14.30;99.90
32865;DHT22;19219;44.500;11.188;2023-05-14T03:10:48;14.30;99.90
32865;DHT22;19219;44.500;11.188;2023-05-14T03:13:14;14.30;99.90
32865;DHT22;19219;44.500;11.188;2023-05-14T03:15:45;14.30;99.90
32865;DHT22;19219;44.500;11.188;2023-05-14T03:18:12;14.20;99.90
32865;DHT22;19219;44.500;11.188;2023-05-14T03:20:37;14.20;99.90
32865;DHT22;19219;44.500;11.188;2023-05-14T03:23:04;14.20;99.90
32865;DHT22;19219;44.500;11.188;2023-05-14T03:25:29;14.30;99.90
32865;DHT22;19219;44.500;11.188;2023-05-14T03:27:55;14.30;99.90
32865;DHT22;19219;44.500;11.188;2023-05-14T03:30:21;14.40;99.90
32865;DHT22;19219;44.500;11.188;2023-05-14T03:32:47;14.30;99.90
32865;DHT22;19219;44.500;11.188;2023-05-14T03:35:12;14.30;99.90
32865;DHT22;19219;44.500;11.188;2023-05-14T03:37:38;14.30;99.90
32865;DHT22;19219;44.500;11.188;2023-05-14T03:40:04;14.20;99.90
32865;DHT22;19219;44.500;11.188;2023-05-14T03:42:30;14.20;99.90
32865;DHT22;19219;44.500;11.188;2023-05-14T03:44:56;14.20;99.90
32865;DHT22;19219;44.500;11.188;2023-05-14T03:47:21;14.20;99.90
32865;DHT22;19219;44.500;11.188;2023-05-14T03:49:47;14.00;99.90
32865;DHT22;19219;44.500;11.188;2023-05-14T03:52:12;14.00;99.90
32865;DHT22;19219;44.500;11.188;2023-05-14T03:54:38;14.00;99.90
32865;DHT22;19219;44.500;11.188;2023-05-14T03:57:05;13.90;99.90
32865;DHT22;19219;44.500;11.188;2023-05-14T03:59:31;13.90;99.90
32865;DHT22;19219;44.500;11.188;2023-05-14T04:01:57;13.90;99.90
32865;DHT22;19219;44.500;11.188;2023-05-14T04:04:22;13.90;99.90
32865;DHT22;19219;44.500;11.188;2023-05-14T04:06:48;13.90;99.90
32865;DHT22;19219;44.500;11.188;2023-05-14T04:09:14;13.90;99.90
32865;DHT22;19219;44.500;11.188;2023-05-14T04:11:39;13.80;99.90
32865;DHT22;19219;44.500;11.188;2023-05-14T04:14:05;13.70;99.90
32865;DHT22;19219;44.500;11.188;2023-05-14T04:16:31;13.70;99.90
32865;DHT22;19219;44.500;11.188;2023-05-14T04:18:57;13.70;99.90
32865;DHT22;19219;44.500;11.188;2023-05-14T04:21:22;13.70;99.90
32865;DHT22;19219;44.500;11.188;2023-05-14T04:23:48;13.70;99.90
32865;DHT22;19219;44.500;11.188;2023-05-14T04:26:16;13.70;99.90
32865;DHT22;19219;44.500;11.188;2023-05-14T04:28:41;13.70;99.90
32865;DHT22;19219;44.500;11.188;2023-05-14T04:31:07;13.70;99.90
32865;DHT22;19219;44.500;11.188;2023-05-14T04:33:33;13.60;99.90
32865;DHT22;19219;44.500;11.188;2023-05-14T04:35:58;13.60;99.90
32865;DHT22;19219;44.500;11.188;2023-05-14T04:38:24;13.70;99.90
32865;DHT22;19219;44.500;11.188;2023-05-14T04:40:50;13.70;99.90
32865;DHT22;19219;44.500;11.188;2023-05-14T04:43:15;13.70;99.90
32865;DHT22;19219;44.500;11.188;2023-05-14T04:45:41;13.70;99.90
32865;DHT22;19219;44.500;11.188;2023-05-14T04:48:07;13.60;99.90
32865;DHT22;19219;44.500;11.188;2023-05-14T04:50:33;13.60;99.90
32865;DHT22;19219;44.500;11.188;2023-05-14T04:52:59;13.70;99.90
32865;DHT22;19219;44.500;11.188;2023-05-14T04:55:25;13.80;99.90
32865;DHT22;19219;44.500;11.188;2023-05-14T04:57:51;13.80;99.90
32865;DHT22;19219;44.500;11.188;2023-05-14T05:00:17;13.80;99.90
32865;DHT22;19219;44.500;11.188;2023-05-14T05:02:43;13.80;99.90
32865;DHT22;19219;44.500;11.188;2023-05-14T05:05:09;13.80;99.90
32865;DHT22;19219;44.500;11.188;2023-05-14T05:07:35;13.70;99.90
32865;DHT22;19219;44.500;11.188;2023-05-14T05:10:01;13.80;99.90
32865;DHT22;19219;44.500;11.188;2023-05-14T05:12:27;13.80;99.90
32865;DHT22;19219;44.500;11.188;2023-05-14T05:14:55;13.70;99.90
32865;DHT22;19219;44.500;11.188;2023-05-14T05:17:22;13.60;99.90
32865;DHT22;19219;44.500;11.188;2023-05-14T05:19:48;13.60;99.90
32865;DHT22;19219;44.500;11.188;2023-05-14T05:22:14;13.70;99.90
32865;DHT22;19219;44.500;11.188;2023-05-14T05:24:40;13.70;99.90
32865;DHT22;19219;44.500;11.188;2023-05-14T05:27:05;13.60;99.90
32865;DHT22;19219;44.500;11.188;2023-05-14T05:29:31;13.60;99.90
32865;DHT22;19219;44.500;11.188;2023-05-14T05:31:57;13.50;99.90
32865;DHT22;19219;44.500;11.188;2023-05-14T05:34:23;13.60;99.90
32865;DHT22;19219;44.500;11.188;2023-05-14T05:36:49;13.60;99.90
32865;DHT22;19219;44.500;11.188;2023-05-14T05:39:14;13.50;99.90
32865;DHT22;19219;44.500;11.188;2023-05-14T05:41:40;13.60;99.90
32865;DHT22;19219;44.500;11.188;2023-05-14T05:44:06;13.50;99.90
32865;DHT22;19219;44.500;11.188;2023-05-14T05:46:32;13.60;99.90
32865;DHT22;19219;44.500;11.188;2023-05-14T05:48:57;13.60;99.90
32865;DHT22;19219;44.500;11.188;2023-05-14T05:51:23;13.60;99.90
32865;DHT22;19219;44.500;11.188;2023-05-14T05:53:49;13.60;99.90
32865;DHT22;19219;44.500;11.188;2023-05-14T05:56:14;13.60;99.90
32865;DHT22;19219;44.500;11.188;2023-05-14T05:58:40;13.60;99.90
32865;DHT22;19219;44.500;11.188;2023-05-14T06:01:06;13.60;99.90
32865;DHT22;19219;44.500;11.188;2023-05-14T06:03:31;13.70;99.90
32865;DHT22;19219;44.500;11.188;2023-05-14T06:05:57;13.70;99.90
32865;DHT22;19219;44.500;11.188;2023-05-14T06:08:23;13.70;99.90
32865;DHT22;19219;44.500;11.188;2023-05-14T06:10:48;13.70;99.90
32865;DHT22;19219;44.500;11.188;2023-05-14T06:13:14;13.70;99.90
32865;DHT22;19219;44.500;11.188;2023-05-14T06:15:40;13.70;99.90
32865;DHT22;19219;44.500;11.188;2023-05-14T06:18:05;13.70;99.90
32865;DHT22;19219;44.500;11.188;2023-05-14T06:20:31;13.60;99.90
32865;DHT22;19219;44.500;11.188;2023-05-14T06:22:57;13.70;99.90
32865;DHT22;19219;44.500;11.188;2023-05-14T06:25:23;13.80;99.90
32865;DHT22;19219;44.500;11.188;2023-05-14T06:27:48;14.00;99.90
32865;DHT22;19219;44.500;11.188;2023-05-14T06:30:14;14.20;99.90
32865;DHT22;19219;44.500;11.188;2023-05-14T06:32:40;14.30;99.90
32865;DHT22;19219;44.500;11.188;2023-05-14T06:35:06;14.30;99.90
32865;DHT22;19219;44.500;11.188;2023-05-14T06:37:32;14.40;99.90
32865;DHT22;19219;44.500;11.188;2023-05-14T06:39:58;14.50;99.90
32865;DHT22;19219;44.500;11.188;2023-05-14T06:42:23;14.50;99.90
32865;DHT22;19219;44.500;11.188;2023-05-14T06:44:50;14.50;99.90
32865;DHT22;19219;44.500;11.188;2023-05-14T06:47:16;14.50;99.90
32865;DHT22;19219;44.500;11.188;2023-05-14T06:49:42;14.70;99.90
32865;DHT22;19219;44.500;11.188;2023-05-14T06:52:08;14.90;99.90
32865;DHT22;19219;44.500;11.188;2023-05-14T06:54:33;14.90;99.90
32865;DHT22;19219;44.500;11.188;2023-05-14T06:56:59;14.80;99.90
32865;DHT22;19219;44.500;11.188;2023-05-14T06:59:25;14.80;99.90
32865;DHT22;19219;44.500;11.188;2023-05-14T07:01:50;14.80;99.90
32865;DHT22;19219;44.500;11.188;2023-05-14T07:04:16;15.00;99.90
32865;DHT22;19219;44.500;11.188;2023-05-14T07:06:42;14.90;99.90
32865;DHT22;19219;44.500;11.188;2023-05-14T07:09:07;15.00;99.90
32865;DHT22;19219;44.500;11.188;2023-05-14T07:11:33;15.10;99.90
32865;DHT22;19219;44.500;11.188;2023-05-14T07:13:59;15.10;99.90
32865;DHT22;19219;44.500;11.188;2023-05-14T07:16:25;15.20;99.90
32865;DHT22;19219;44.500;11.188;2023-05-14T07:18:51;15.20;99.90
32865;DHT22;19219;44.500;11.188;2023-05-14T07:21:17;15.20;99.90
32865;DHT22;19219;44.500;11.188;2023-05-14T07:23:42;15.30;99.90
32865;DHT22;19219;44.500;11.188;2023-05-14T07:26:08;15.40;99.90
32865;DHT22;19219;44.500;11.188;2023-05-14T07:28:34;15.50;99.90
32865;DHT22;19219;44.500;11.188;2023-05-14T07:31:00;15.70;99.90
32865;DHT22;19219;44.500;11.188;2023-05-14T07:33:26;16.00;99.90
32865;DHT22;19219;44.500;11.188;2023-05-14T07:35:52;16.00;99.90
32865;DHT22;19219;44.500;11.188;2023-05-14T07:38:19;15.90;99.90
32865;DHT22;19219;44.500;11.188;2023-05-14T07:40:45;15.70;99.90
32865;DHT22;19219;44.500;11.188;2023-05-14T07:43:10;15.50;99.90
32865;DHT22;19219;44.500;11.188;2023-05-14T07:45:37;15.50;99.90
32865;DHT22;19219;44.500;11.188;2023-05-14T07:48:04;15.30;99.90
32865;DHT22;19219;44.500;11.188;2023-05-14T07:50:30;15.30;99.90
32865;DHT22;19219;44.500;11.188;2023-05-14T07:52:56;15.40;99.90
32865;DHT22;19219;44.500;11.188;2023-05-14T07:55:22;15.30;99.90
32865;DHT22;19219;44.500;11.188;2023-05-14T07:57:47;15.40;99.90
32865;DHT22;19219;44.500;11.188;2023-05-14T08:00:13;15.50;99.90
32865;DHT22;19219;44.500;11.188;2023-05-14T08:02:40;15.60;99.90
32865;DHT22;19219;44.500;11.188;2023-05-14T08:05:07;15.60;99.90
32865;DHT22;19219;44.500;11.188;2023-05-14T08:07:33;15.60;99.90
32865;DHT22;19219;44.500;11.188;2023-05-14T08:09:59;15.80;99.90
32865;DHT22;19219;44.500;11.188;2023-05-14T08:12:24;15.90;99.90
32865;DHT22;19219;44.500;11.188;2023-05-14T08:14:51;16.10;99.90
32865;DHT22;19219;44.500;11.188;2023-05-14T08:17:17;16.20;99.90
32865;DHT22;19219;44.500;11.188;2023-05-14T08:19:42;16.30;99.90
32865;DHT22;19219;44.500;11.188;2023-05-14T08:22:08;16.30;99.90
32865;DHT22;19219;44.500;11.188;2023-05-14T08:24:34;16.40;99.90
32865;DHT22;19219;44.500;11.188;2023-05-14T08:26:59;16.30;99.90
32865;DHT22;19219;44.500;11.188;2023-05-14T08:29:26;16.40;99.90
32865;DHT22;19219;44.500;11.188;2023-05-14T08:31:52;16.40;99.90
32865;DHT22;19219;44.500;11.188;2023-05-14T08:34:18;16.50;99.90
32865;DHT22;19219;44.500;11.188;2023-05-14T08:36:44;16.50;99.90
32865;DHT22;19219;44.500;11.188;2023-05-14T08:39:09;16.60;99.90
32865;DHT22;19219;44.500;11.188;2023-05-14T08:41:35;16.70;99.90
32865;DHT22;19219;44.500;11.188;2023-05-14T08:44:17;16.70;99.90
32865;DHT22;19219;44.500;11.188;2023-05-14T08:46:43;16.90;99.90
32865;DHT22;19219;44.500;11.188;2023-05-14T08:49:58;17.10;99.90
32865;DHT22;19219;44.500;11.188;2023-05-14T08:52:25;17.30;99.90
32865;DHT22;19219;44.500;11.188;2023-05-14T08:54:52;17.50;99.90
32865;DHT22;19219;44.500;11.188;2023-05-14T08:57:19;17.50;99.90
32865;DHT22;19219;44.500;11.188;2023-05-14T08:59:45;17.80;99.90
32865;DHT22;19219;44.500;11.188;2023-05-14T09:02:14;18.20;99.90
32865;DHT22;19219;44.500;11.188;2023-05-14T09:04:42;18.20;99.90
32865;DHT22;19219;44.500;11.188;2023-05-14T09:07:07;18.40;99.90
32865;DHT22;19219;44.500;11.188;2023-05-14T09:09:33;18.40;99.90
32865;DHT22;19219;44.500;11.188;2023-05-14T09:12:00;18.30;99.90
32865;DHT22;19219;44.500;11.188;2023-05-14T09:14:26;18.20;99.90
32865;DHT22;19219;44.500;11.188;2023-05-14T09:16:51;18.00;99.90
32865;DHT22;19219;44.500;11.188;2023-05-14T09:19:19;17.90;99.90
32865;DHT22;19219;44.500;11.188;2023-05-14T09:21:46;17.50;99.90
32865;DHT22;19219;44.500;11.188;2023-05-14T09:24:39;17.30;99.90
32865;DHT22;19219;44.500;11.188;2023-05-14T09:27:05;17.00;99.90
32865;DHT22;19219;44.500;11.188;2023-05-14T09:29:32;16.60;99.90
32865;DHT22;19219;44.500;11.188;2023-05-14T09:31:58;16.40;99.90
32865;DHT22;19219;44.500;11.188;2023-05-14T09:34:30;16.40;99.90
32865;DHT22;19219;44.500;11.188;2023-05-14T09:37:00;16.40;99.90
32865;DHT22;19219;44.500;11.188;2023-05-14T09:39:26;16.30;99.90
32865;DHT22;19219;44.500;11.188;2023-05-14T09:41:52;16.30;99.90
32865;DHT22;19219;44.500;11.188;2023-05-14T09:44:19;16.30;99.90
32865;DHT22;19219;44.500;11.188;2023-05-14T09:46:45;16.30;99.90
32865;DHT22;19219;44.500;11.188;2023-05-14T09:49:11;16.30;99.90
32865;DHT22;19219;44.500;11.188;2023-05-14T09:51:37;16.20;99.90
32865;DHT22;19219;44.500;11.188;2023-05-14T09:54:04;16.10;99.90
32865;DHT22;19219;44.500;11.188;2023-05-14T09:56:33;16.00;99.90
32865;DHT22;19219;44.500;11.188;2023-05-14T09:58:59;15.80;99.90
32865;DHT22;19219;44.500;11.188;2023-05-14T10:01:27;15.80;99.90
32865;DHT22;19219;44.500;11.188;2023-05-14T10:03:53;15.70;99.90
32865;DHT22;19219;44.500;11.188;2023-05-14T10:06:23;15.80;99.90
32865;DHT22;19219;44.500;11.188;2023-05-14T10:08:55;15.80;99.90
32865;DHT22;19219;44.500;11.188;2023-05-14T10:11:27;15.70;99.90
32865;DHT22;19219;44.500;11.188;2023-05-14T10:14:04;15.80;99.90
32865;DHT22;19219;44.500;11.188;2023-05-14T10:16:33;15.70;99.90
32865;DHT22;19219;44.500;11.188;2023-05-14T10:19:10;15.60;99.90
32865;DHT22;19219;44.500;11.188;2023-05-14T10:21:39;15.60;99.90
32865;DHT22;19219;44.500;11.188;2023-05-14T10:24:06;15.70;99.90
32865;DHT22;19219;44.500;11.188;2023-05-14T10:26:34;15.70;99.90
32865;DHT22;19219;44.500;11.188;2023-05-14T10:29:04;15.60;99.90
32865;DHT22;19219;44.500;11.188;2023-05-14T10:31:52;15.60;99.90
32865;DHT22;19219;44.500;11.188;2023-05-14T10:37:23;15.90;99.90
32865;DHT22;19219;44.500;11.188;2023-05-14T10:42:21;15.90;99.90
32865;DHT22;19219;44.500;11.188;2023-05-14T10:44:55;16.10;99.90
32865;DHT22;19219;44.500;11.188;2023-05-14T10:47:26;16.20;99.90
32865;DHT22;19219;44.500;11.188;2023-05-14T10:49:57;16.40;99.90
32865;DHT22;19219;44.500;11.188;2023-05-14T10:52:24;16.60;99.90
32865;DHT22;19219;44.500;11.188;2023-05-14T10:57:20;16.50;99.90
32865;DHT22;19219;44.500;11.188;2023-05-14T10:59:48;16.60;99.90
32865;DHT22;19219;44.500;11.188;2023-05-14T11:05:00;16.70;99.90
32865;DHT22;19219;44.500;11.188;2023-05-14T11:07:39;16.90;99.90
32865;DHT22;19219;44.500;11.188;2023-05-14T11:10:18;17.00;99.90
32865;DHT22;19219;44.500;11.188;2023-05-14T11:12:46;17.00;99.90
32865;DHT22;19219;44.500;11.188;2023-05-14T11:15:16;16.90;99.90
32865;DHT22;19219;44.500;11.188;2023-05-14T11:17:43;16.90;99.90
32865;DHT22;19219;44.500;11.188;2023-05-14T11:20:10;16.80;99.90
32865;DHT22;19219;44.500;11.188;2023-05-14T12:20:09;15.90;99.90
32865;DHT22;19219;44.500;11.188;2023-05-14T12:22:35;16.00;99.90
32865;DHT22;19219;44.500;11.188;2023-05-14T12:25:01;16.00;99.90
32865;DHT22;19219;44.500;11.188;2023-05-14T12:27:28;15.90;99.90
32865;DHT22;19219;44.500;11.188;2023-05-14T12:30:01;16.00;99.90
32865;DHT22;19219;44.500;11.188;2023-05-14T12:32:30;16.00;99.90
32865;DHT22;19219;44.500;11.188;2023-05-14T12:34:56;15.90;99.90
32865;DHT22;19219;44.500;11.188;2023-05-14T12:37:21;15.80;99.90
32865;DHT22;19219;44.500;11.188;2023-05-14T12:39:47;15.70;99.90
32865;DHT22;19219;44.500;11.188;2023-05-14T12:42:14;15.70;99.90
32865;DHT22;19219;44.500;11.188;2023-05-14T12:44:40;15.70;99.90
32865;DHT22;19219;44.500;11.188;2023-05-14T12:47:06;15.70;99.90
32865;DHT22;19219;44.500;11.188;2023-05-14T12:49:31;15.80;99.90
32865;DHT22;19219;44.500;11.188;2023-05-14T12:51:57;15.90;99.90
32865;DHT22;19219;44.500;11.188;2023-05-14T12:54:22;15.90;99.90
32865;DHT22;19219;44.500;11.188;2023-05-14T12:56:48;16.00;99.90
32865;DHT22;19219;44.500;11.188;2023-05-14T12:59:14;16.10;99.90
32865;DHT22;19219;44.500;11.188;2023-05-14T13:01:40;16.10;99.90
32865;DHT22;19219;44.500;11.188;2023-05-14T13:04:06;16.20;99.90
32865;DHT22;19219;44.500;11.188;2023-05-14T13:06:33;16.30;99.90
32865;DHT22;19219;44.500;11.188;2023-05-14T13:08:59;16.30;99.90
32865;DHT22;19219;44.500;11.188;2023-05-14T13:11:26;16.30;99.90
32865;DHT22;19219;44.500;11.188;2023-05-14T13:13:54;16.30;99.90
32865;DHT22;19219;44.500;11.188;2023-05-14T13:16:20;16.40;99.90
32865;DHT22;19219;44.500;11.188;2023-05-14T13:18:45;16.50;99.90
32865;DHT22;19219;44.500;11.188;2023-05-14T13:21:11;16.60;99.90
32865;DHT22;19219;44.500;11.188;2023-05-14T13:23:37;16.70;99.90
32865;DHT22;19219;44.500;11.188;2023-05-14T13:26:03;16.60;99.90
32865;DHT22;19219;44.500;11.188;2023-05-14T13:28:28;16.70;99.90
32865;DHT22;19219;44.500;11.188;2023-05-14T13:33:35;16.80;99.90
32865;DHT22;19219;44.500;11.188;2023-05-14T13:36:00;17.00;99.90
32865;DHT22;19219;44.500;11.188;2023-05-14T13:38:26;17.10;99.90
32865;DHT22;19219;44.500;11.188;2023-05-14T13:40:52;17.20;99.90
32865;DHT22;19219;44.500;11.188;2023-05-14T13:43:19;17.50;99.90
32865;DHT22;19219;44.500;11.188;2023-05-14T13:45:44;17.60;99.90
32865;DHT22;19219;44.500;11.188;2023-05-14T13:48:10;17.80;99.90
32865;DHT22;19219;44.500;11.188;2023-05-14T13:50:36;18.20;99.90
32865;DHT22;19219;44.500;11.188;2023-05-14T13:53:01;18.20;99.90
32865;DHT22;19219;44.500;11.188;2023-05-14T13:55:27;18.20;99.90
32865;DHT22;19219;44.500;11.188;2023-05-14T13:57:52;18.20;99.90
32865;DHT22;19219;44.500;11.188;2023-05-14T14:00:18;18.40;99.90
32865;DHT22;19219;44.500;11.188;2023-05-14T14:02:44;18.50;99.90
32865;DHT22;19219;44.500;11.188;2023-05-14T14:05:10;18.70;99.90
32865;DHT22;19219;44.500;11.188;2023-05-14T14:07:35;18.60;99.90
32865;DHT22;19219;44.500;11.188;2023-05-14T14:10:01;18.60;99.90
32865;DHT22;19219;44.500;11.188;2023-05-14T14:12:27;18.70;99.90
32865;DHT22;19219;44.500;11.188;2023-05-14T14:14:52;18.70;99.90
32865;DHT22;19219;44.500;11.188;2023-05-14T14:17:18;18.50;99.90
32865;DHT22;19219;44.500;11.188;2023-05-14T14:19:44;18.40;99.90
32865;DHT22;19219;44.500;11.188;2023-05-14T14:22:09;18.40;99.90
32865;DHT22;19219;44.500;11.188;2023-05-14T14:24:36;18.40;99.90
32865;DHT22;19219;44.500;11.188;2023-05-14T14:27:02;18.50;99.90
32865;DHT22;19219;44.500;11.188;2023-05-14T14:29:28;18.50;99.90
32865;DHT22;19219;44.500;11.188;2023-05-14T14:31:55;18.40;99.90
32865;DHT22;19219;44.500;11.188;2023-05-14T14:34:21;18.30;99.90
32865;DHT22;19219;44.500;11.188;2023-05-14T14:36:47;18.20;99.90
32865;DHT22;19219;44.500;11.188;2023-05-14T14:39:12;18.00;99.90
32865;DHT22;19219;44.500;11.188;2023-05-14T14:41:38;17.70;99.90
32865;DHT22;19219;44.500;11.188;2023-05-14T14:44:03;17.60;99.90
32865;DHT22;19219;44.500;11.188;2023-05-14T14:46:30;17.70;99.90
32865;DHT22;19219;44.500;11.188;2023-05-14T14:48:56;17.60;99.90
32865;DHT22;19219;44.500;11.188;2023-05-14T14:51:21;17.50;99.90
32865;DHT22;19219;44.500;11.188;2023-05-14T14:53:47;17.50;99.90
32865;DHT22;19219;44.500;11.188;2023-05-14T14:56:13;17.40;99.90
32865;DHT22;19219;44.500;11.188;2023-05-14T14:58:38;17.40;99.90
32865;DHT22;19219;44.500;11.188;2023-05-14T15:01:04;17.30;99.90
32865;DHT22;19219;44.500;11.188;2023-05-14T15:03:30;17.20;99.90
32865;DHT22;19219;44.500;11.188;2023-05-14T15:05:55;17.00;99.90
32865;DHT22;19219;44.500;11.188;2023-05-14T15:08:25;17.00;99.90
32865;DHT22;19219;44.500;11.188;2023-05-14T15:10:57;16.90;99.90
32865;DHT22;19219;44.500;11.188;2023-05-14T15:13:23;16.70;99.90
32865;DHT22;19219;44.500;11.188;2023-05-14T15:15:50;16.60;99.90
32865;DHT22;19219;44.500;11.188;2023-05-14T15:18:17;16.60;99.90
32865;DHT22;19219;44.500;11.188;2023-05-14T15:20:43;16.60;99.90
32865;DHT22;19219;44.500;11.188;2023-05-14T15:23:08;16.60;99.90
32865;DHT22;19219;44.500;11.188;2023-05-14T15:25:35;16.60;99.90
32865;DHT22;19219;44.500;11.188;2023-05-14T15:28:05;16.70;99.90
32865;DHT22;19219;44.500;11.188;2023-05-14T15:30:31;16.80;99.90
32865;DHT22;19219;44.500;11.188;2023-05-14T15:32:57;17.00;99.90
32865;DHT22;19219;44.500;11.188;2023-05-14T15:35:23;17.10;99.90
32865;DHT22;19219;44.500;11.188;2023-05-14T15:37:48;17.20;99.90
32865;DHT22;19219;44.500;11.188;2023-05-14T15:40:14;17.30;99.90
32865;DHT22;19219;44.500;11.188;2023-05-14T15:42:41;17.40;99.90
32865;DHT22;19219;44.500;11.188;2023-05-14T15:45:08;17.50;99.90
32865;DHT22;19219;44.500;11.188;2023-05-14T15:47:34;17.60;99.90
32865;DHT22;19219;44.500;11.188;2023-05-14T15:50:00;17.70;99.90
32865;DHT22;19219;44.500;11.188;2023-05-14T15:52:26;17.70;99.90
32865;DHT22;19219;44.500;11.188;2023-05-14T15:54:52;17.80;99.90
32865;DHT22;19219;44.500;11.188;2023-05-14T15:57:18;17.70;99.90
32865;DHT22;19219;44.500;11.188;2023-05-14T15:59:45;17.70;99.90
32865;DHT22;19219;44.500;11.188;2023-05-14T16:02:11;17.60;99.90
32865;DHT22;19219;44.500;11.188;2023-05-14T16:04:36;17.70;99.90
32865;DHT22;19219;44.500;11.188;2023-05-14T16:07:04;17.70;99.90
32865;DHT22;19219;44.500;11.188;2023-05-14T16:09:29;17.70;99.90
32865;DHT22;19219;44.500;11.188;2023-05-14T16:11:55;17.70;99.90
32865;DHT22;19219;44.500;11.188;2023-05-14T16:14:21;17.60;99.90
32865;DHT22;19219;44.500;11.188;2023-05-14T16:16:47;17.60;99.90
32865;DHT22;19219;44.500;11.188;2023-05-14T16:19:14;17.70;99.90
32865;DHT22;19219;44.500;11.188;2023-05-14T16:21:40;17.80;99.90
32865;DHT22;19219;44.500;11.188;2023-05-14T16:24:06;17.70;99.90
32865;DHT22;19219;44.500;11.188;2023-05-14T16:26:32;17.60;99.90